createdAt,value
2017-12-15T00:00:48.724Z,3.01
2017-12-15T00:01:58.406Z,3
2017-12-15T00:03:07.836Z,2.98
2017-12-15T00:04:17.829Z,2.91
2017-12-15T00:05:27.801Z,2.98
2017-12-15T00:06:37.507Z,2.9
2017-12-15T00:07:47.460Z,2.93
2017-12-15T00:08:57.151Z,2.82
2017-12-15T00:10:06.884Z,2.83
2017-12-15T00:11:16.840Z,2.8
2017-12-15T00:12:26.526Z,2.83
2017-12-15T00:13:36.005Z,2.72
2017-12-15T00:14:45.684Z,2.76
2017-12-15T00:15:55.377Z,2.79
2017-12-15T00:17:05.329Z,2.73
2017-12-15T00:18:15.015Z,2.79
2017-12-15T00:19:24.970Z,2.76
2017-12-15T00:20:34.662Z,2.8
2017-12-15T00:21:44.349Z,2.59
2017-12-15T00:22:53.774Z,2.69
2017-12-15T00:24:03.724Z,2.62
2017-12-15T00:25:13.668Z,2.58
2017-12-15T00:26:23.380Z,2.57
2017-12-15T00:27:33.072Z,2.59
2017-12-15T00:28:43.015Z,2.54
2017-12-15T00:29:52.951Z,2.44
2017-12-15T00:31:02.633Z,2.5
2017-12-15T00:32:12.326Z,2.41
2017-12-15T00:33:21.751Z,2.44
2017-12-15T00:34:31.694Z,2.36
2017-12-15T00:35:41.645Z,2.34
2017-12-15T00:36:51.332Z,2.36
2017-12-15T00:38:01.018Z,2.3
2017-12-15T00:39:10.700Z,2.34
2017-12-15T00:40:20.659Z,2.39
2017-12-15T00:41:30.596Z,2.3
2017-12-15T00:42:40.538Z,2.23
2017-12-15T00:43:50.237Z,2.36
2017-12-15T00:44:59.676Z,2.28
2017-12-15T00:46:09.360Z,2.26
2017-12-15T00:47:19.324Z,2.3
2017-12-15T00:48:29.014Z,2.32
2017-12-15T00:49:38.697Z,2.3
2017-12-15T00:50:48.132Z,2.18
2017-12-15T00:51:57.813Z,2.26
2017-12-15T00:53:07.777Z,2.32
2017-12-15T00:54:17.721Z,2.3
2017-12-15T00:55:27.666Z,2.25
2017-12-15T00:56:36.841Z,2.26
2017-12-15T00:57:46.533Z,2.32
2017-12-15T00:58:55.956Z,2.22
2017-12-15T01:00:05.894Z,2.33
2017-12-15T01:01:15.836Z,2.33
2017-12-15T01:02:25.785Z,2.33
2017-12-15T01:03:35.729Z,2.32
2017-12-15T01:04:45.161Z,2.26
2017-12-15T01:05:54.591Z,2.25
2017-12-15T01:07:04.272Z,2.23
2017-12-15T01:08:13.447Z,2.26
2017-12-15T01:09:23.387Z,2.32
2017-12-15T01:10:32.818Z,2.3
2017-12-15T01:11:42.507Z,2.23
2017-12-15T01:12:51.422Z,2.18
2017-12-15T01:14:01.366Z,2.33
2017-12-15T01:15:11.053Z,2.25
2017-12-15T01:16:21.004Z,2.15
2017-12-15T01:17:30.969Z,2.14
2017-12-15T01:18:40.908Z,2.14
2017-12-15T01:19:50.880Z,2.16
2017-12-15T01:21:00.817Z,2.04
2017-12-15T01:22:10.570Z,2.04
2017-12-15T01:23:20.524Z,2.07
2017-12-15T01:24:30.218Z,2.1
2017-12-15T01:25:39.908Z,2.04
2017-12-15T01:26:49.086Z,2.01
2017-12-15T01:27:58.512Z,1.98
2017-12-15T01:29:07.939Z,1.98
2017-12-15T01:30:17.881Z,1.88
2017-12-15T01:31:27.830Z,1.84
2017-12-15T01:32:37.783Z,1.92
2017-12-15T01:33:47.670Z,1.86
2017-12-15T01:34:57.358Z,1.78
2017-12-15T01:36:06.775Z,1.85
2017-12-15T01:37:16.461Z,1.84
2017-12-15T01:38:26.409Z,1.76
2017-12-15T01:39:36.107Z,1.75
2017-12-15T01:40:45.785Z,1.78
2017-12-15T01:41:55.480Z,1.71
2017-12-15T01:43:05.415Z,1.68
2017-12-15T01:44:15.100Z,1.64
2017-12-15T01:45:24.785Z,1.6
2017-12-15T01:46:34.472Z,1.57
2017-12-15T01:47:44.422Z,1.57
2017-12-15T01:48:53.844Z,1.56
2017-12-15T01:50:03.279Z,1.56
2017-12-15T01:51:12.986Z,1.53
2017-12-15T01:52:22.932Z,1.56
2017-12-15T01:53:32.372Z,1.53
2017-12-15T01:54:42.069Z,1.58
2017-12-15T01:55:52.028Z,1.63
2017-12-15T01:57:01.966Z,1.56
2017-12-15T01:58:11.671Z,1.57
2017-12-15T01:59:21.381Z,1.6
2017-12-15T02:00:31.319Z,1.56
2017-12-15T02:01:41.011Z,1.46
2017-12-15T02:02:50.689Z,1.49
2017-12-15T02:04:00.428Z,1.46
2017-12-15T02:05:10.372Z,1.46
2017-12-15T02:06:20.315Z,1.49
2017-12-15T02:07:30.305Z,1.46
2017-12-15T02:08:39.998Z,1.46
2017-12-15T02:09:49.175Z,1.5
2017-12-15T02:10:58.856Z,1.43
2017-12-15T02:12:08.547Z,1.48
2017-12-15T02:13:18.493Z,1.4
2017-12-15T02:14:27.938Z,1.45
2017-12-15T02:15:37.881Z,1.48
2017-12-15T02:16:47.572Z,1.38
2017-12-15T02:17:57.256Z,1.39
2017-12-15T02:19:07.193Z,1.39
2017-12-15T02:20:16.634Z,1.46
2017-12-15T02:21:26.575Z,1.38
2017-12-15T02:22:36.518Z,1.48
2017-12-15T02:23:46.197Z,1.42
2017-12-15T02:24:55.613Z,1.38
2017-12-15T02:26:05.552Z,1.45
2017-12-15T02:27:15.027Z,1.36
2017-12-15T02:28:24.977Z,1.32
2017-12-15T02:29:34.916Z,1.34
2017-12-15T02:30:44.351Z,1.32
2017-12-15T02:31:53.791Z,1.22
2017-12-15T02:33:03.219Z,1.38
2017-12-15T02:34:12.914Z,1.28
2017-12-15T02:35:22.860Z,1.31
2017-12-15T02:36:32.584Z,1.34
2017-12-15T02:37:42.287Z,1.27
2017-12-15T02:38:51.968Z,1.24
2017-12-15T02:40:01.159Z,1.27
2017-12-15T02:41:10.586Z,1.25
2017-12-15T02:42:20.271Z,1.24
2017-12-15T02:43:29.697Z,1.25
2017-12-15T02:44:39.645Z,1.24
2017-12-15T02:45:49.331Z,1.27
2017-12-15T02:46:59.286Z,1.22
2017-12-15T02:48:08.967Z,1.21
2017-12-15T02:49:18.665Z,1.21
2017-12-15T02:50:28.358Z,1.22
2017-12-15T02:51:38.048Z,1.28
2017-12-15T02:52:48.012Z,1.21
2017-12-15T02:53:57.962Z,1.24
2017-12-15T02:55:07.655Z,1.28
2017-12-15T02:56:17.088Z,1.2
2017-12-15T02:57:26.775Z,1.3
2017-12-15T02:58:36.720Z,1.24
2017-12-15T02:59:46.665Z,1.27
2017-12-15T03:00:56.629Z,1.27
2017-12-15T03:02:06.318Z,1.3
2017-12-15T03:03:16.278Z,1.34
2017-12-15T03:04:25.960Z,1.34
2017-12-15T03:05:35.905Z,1.38
2017-12-15T03:06:45.854Z,1.38
2017-12-15T03:07:55.800Z,1.38
2017-12-15T03:09:05.211Z,1.32
2017-12-15T03:10:14.635Z,1.38
2017-12-15T03:11:24.311Z,1.39
2017-12-15T03:12:33.988Z,1.36
2017-12-15T03:13:43.923Z,1.42
2017-12-15T03:14:53.865Z,1.34
2017-12-15T03:16:03.930Z,1.38
2017-12-15T03:17:13.704Z,1.34
2017-12-15T03:18:23.165Z,1.2
2017-12-15T03:19:33.140Z,1.28
2017-12-15T03:20:43.122Z,1.32
2017-12-15T03:21:53.448Z,1.25
2017-12-15T03:23:03.581Z,1.36
2017-12-15T03:24:13.611Z,1.27
2017-12-15T03:25:23.305Z,1.25
2017-12-15T03:26:32.733Z,1.27
2017-12-15T03:27:42.678Z,1.24
2017-12-15T03:28:52.614Z,1.24
2017-12-15T03:30:02.573Z,1.28
2017-12-15T03:31:12.272Z,1.31
2017-12-15T03:32:22.257Z,1.21
2017-12-15T03:33:31.953Z,1.27
2017-12-15T03:34:41.646Z,1.16
2017-12-15T03:35:51.583Z,1.22
2017-12-15T03:37:01.520Z,1.3
2017-12-15T03:38:11.455Z,1.27
2017-12-15T03:39:21.433Z,1.24
2017-12-15T03:40:31.129Z,1.24
2017-12-15T03:41:40.811Z,1.24
2017-12-15T03:42:50.754Z,1.32
2017-12-15T03:44:00.173Z,1.34
2017-12-15T03:45:09.854Z,1.32
2017-12-15T03:46:19.544Z,1.31
2017-12-15T03:47:28.966Z,1.34
2017-12-15T03:48:38.918Z,1.4
2017-12-15T03:49:48.605Z,1.42
2017-12-15T03:50:58.276Z,1.45
2017-12-15T03:52:08.249Z,1.34
2017-12-15T03:53:18.182Z,1.36
2017-12-15T03:54:28.126Z,1.42
2017-12-15T03:55:37.562Z,1.45
2017-12-15T03:56:47.565Z,1.38
2017-12-15T03:57:57.555Z,1.28
2017-12-15T03:59:07.488Z,1.34
2017-12-15T04:00:16.912Z,1.43
2017-12-15T04:01:26.590Z,1.38
2017-12-15T04:02:36.284Z,1.48
2017-12-15T04:03:46.035Z,1.34
2017-12-15T04:04:56.025Z,1.34
2017-12-15T04:06:05.721Z,1.46
2017-12-15T04:07:15.667Z,1.46
2017-12-15T04:08:25.105Z,1.46
2017-12-15T04:09:34.789Z,1.46
2017-12-15T04:10:43.956Z,1.49
2017-12-15T04:11:53.635Z,1.36
2017-12-15T04:13:03.576Z,1.34
2017-12-15T04:14:13.280Z,1.48
2017-12-15T04:15:22.971Z,1.43
2017-12-15T04:16:32.396Z,1.4
2017-12-15T04:17:42.078Z,1.46
2017-12-15T04:18:52.022Z,1.45
2017-12-15T04:20:01.446Z,1.48
2017-12-15T04:21:11.398Z,1.32
2017-12-15T04:22:21.094Z,1.43
2017-12-15T04:23:30.265Z,1.43
2017-12-15T04:24:40.455Z,1.36
2017-12-15T04:25:50.142Z,1.39
2017-12-15T04:26:59.826Z,1.49
2017-12-15T04:28:09.254Z,1.38
2017-12-15T04:29:19.191Z,1.36
2017-12-15T04:30:29.137Z,1.48
2017-12-15T04:31:38.825Z,1.48
2017-12-15T04:32:47.989Z,1.38
2017-12-15T04:33:57.666Z,1.43
2017-12-15T04:35:07.346Z,1.48
2017-12-15T04:36:17.035Z,1.28
2017-12-15T04:37:26.716Z,1.42
2017-12-15T04:38:36.155Z,1.43
2017-12-15T04:39:45.835Z,1.46
2017-12-15T04:40:55.771Z,1.46
2017-12-15T04:42:05.709Z,1.32
2017-12-15T04:43:15.147Z,1.46
2017-12-15T04:44:24.571Z,1.45
2017-12-15T04:45:34.258Z,1.45
2017-12-15T04:46:44.203Z,1.38
2017-12-15T04:47:54.154Z,1.56
2017-12-15T04:49:04.102Z,1.46
2017-12-15T04:50:14.077Z,1.46
2017-12-15T04:51:23.769Z,1.5
2017-12-15T04:52:33.713Z,1.48
2017-12-15T04:53:43.399Z,1.52
2017-12-15T04:54:52.821Z,1.49
2017-12-15T04:56:02.501Z,1.5
2017-12-15T04:57:12.457Z,1.4
2017-12-15T04:58:22.147Z,1.45
2017-12-15T04:59:31.844Z,1.46
2017-12-15T05:00:41.786Z,1.52
2017-12-15T05:01:51.741Z,1.4
2017-12-15T05:03:01.427Z,1.34
2017-12-15T05:04:11.116Z,1.48
2017-12-15T05:05:20.813Z,1.34
2017-12-15T05:06:30.752Z,1.34
2017-12-15T05:07:40.685Z,1.45
2017-12-15T05:08:50.368Z,1.48
2017-12-15T05:10:00.317Z,1.49
2017-12-15T05:11:10.257Z,1.5
2017-12-15T05:12:20.195Z,1.49
2017-12-15T05:13:29.891Z,1.52
2017-12-15T05:14:39.830Z,1.52
2017-12-15T05:15:49.524Z,1.57
2017-12-15T05:16:59.466Z,1.56
2017-12-15T05:18:09.422Z,1.6
2017-12-15T05:19:19.605Z,1.61
2017-12-15T05:20:29.309Z,1.61
2017-12-15T05:21:38.990Z,1.64
2017-12-15T05:22:48.680Z,1.61
2017-12-15T05:23:58.098Z,1.63
2017-12-15T05:25:07.265Z,1.66
2017-12-15T05:26:16.946Z,1.6
2017-12-15T05:27:26.379Z,1.66
2017-12-15T05:28:36.071Z,1.64
2017-12-15T05:29:46.026Z,1.74
2017-12-15T05:30:55.969Z,1.6
2017-12-15T05:32:05.952Z,1.75
2017-12-15T05:33:15.646Z,1.74
2017-12-15T05:34:25.633Z,1.74
2017-12-15T05:35:35.336Z,1.75
2017-12-15T05:36:45.043Z,1.75
2017-12-15T05:37:54.748Z,1.74
2017-12-15T05:39:04.698Z,1.84
2017-12-15T05:40:14.689Z,1.78
2017-12-15T05:41:24.383Z,1.82
2017-12-15T05:42:34.323Z,1.95
2017-12-15T05:43:44.011Z,1.88
2017-12-15T05:44:53.722Z,1.84
2017-12-15T05:46:03.430Z,1.95
2017-12-15T05:47:12.597Z,1.95
2017-12-15T05:48:22.549Z,1.98
2017-12-15T05:49:32.242Z,2
2017-12-15T05:50:41.415Z,2.01
2017-12-15T05:51:51.361Z,2.03
2017-12-15T05:53:01.071Z,2.03
2017-12-15T05:54:10.767Z,2.01
2017-12-15T05:55:20.729Z,2
2017-12-15T05:56:29.899Z,2.12
2017-12-15T05:57:39.323Z,2.07
2017-12-15T05:58:49.013Z,2.08
2017-12-15T05:59:58.976Z,2.07
2017-12-15T06:01:08.658Z,2.03
2017-12-15T06:02:18.100Z,2.03
2017-12-15T06:03:27.538Z,2
2017-12-15T06:04:36.983Z,2.07
2017-12-15T06:05:46.942Z,1.97
2017-12-15T06:06:56.886Z,2.03
2017-12-15T06:08:06.921Z,1.97
2017-12-15T06:09:16.866Z,2.01
2017-12-15T06:10:26.549Z,1.89
2017-12-15T06:11:36.497Z,2
2017-12-15T06:12:45.925Z,1.97
2017-12-15T06:13:55.366Z,1.89
2017-12-15T06:15:05.059Z,1.84
2017-12-15T06:16:14.758Z,1.78
2017-12-15T06:17:24.444Z,1.82
2017-12-15T06:18:34.128Z,1.84
2017-12-15T06:19:43.817Z,1.81
2017-12-15T06:20:53.751Z,1.75
2017-12-15T06:22:03.448Z,1.79
2017-12-15T06:23:13.127Z,1.79
2017-12-15T06:24:22.820Z,1.79
2017-12-15T06:25:32.503Z,1.79
2017-12-15T06:26:42.453Z,1.79
2017-12-15T06:27:52.396Z,1.71
2017-12-15T06:29:02.337Z,1.82
2017-12-15T06:30:12.020Z,1.81
2017-12-15T06:31:21.709Z,1.75
2017-12-15T06:32:31.643Z,1.74
2017-12-15T06:33:41.588Z,1.74
2017-12-15T06:34:51.545Z,1.74
2017-12-15T06:36:01.481Z,1.78
2017-12-15T06:37:11.437Z,1.78
2017-12-15T06:38:21.127Z,1.74
2017-12-15T06:39:30.567Z,1.75
2017-12-15T06:40:40.249Z,1.7
2017-12-15T06:41:50.194Z,1.64
2017-12-15T06:42:59.888Z,1.61
2017-12-15T06:44:09.590Z,1.64
2017-12-15T06:45:19.535Z,1.61
2017-12-15T06:46:29.225Z,1.66
2017-12-15T06:47:39.190Z,1.66
2017-12-15T06:48:48.923Z,1.58
2017-12-15T06:49:58.611Z,1.58
2017-12-15T06:51:08.300Z,1.64
2017-12-15T06:52:17.987Z,1.66
2017-12-15T06:53:27.934Z,1.63
2017-12-15T06:54:37.641Z,1.6
2017-12-15T06:55:47.586Z,1.58
2017-12-15T06:56:57.284Z,1.61
2017-12-15T06:58:06.966Z,1.61
2017-12-15T06:59:16.666Z,1.57
2017-12-15T07:00:26.613Z,1.66
2017-12-15T07:01:36.569Z,1.61
2017-12-15T07:02:46.263Z,1.56
2017-12-15T07:03:55.723Z,1.64
2017-12-15T07:05:05.823Z,1.57
2017-12-15T07:06:15.615Z,1.6
2017-12-15T07:07:25.667Z,1.58
2017-12-15T07:08:35.425Z,1.5
2017-12-15T07:09:45.375Z,1.52
2017-12-15T07:10:55.351Z,1.52
2017-12-15T07:12:04.798Z,1.58
2017-12-15T07:13:14.815Z,1.5
2017-12-15T07:14:24.570Z,1.5
2017-12-15T07:15:34.271Z,1.52
2017-12-15T07:16:44.243Z,1.56
2017-12-15T07:17:53.940Z,1.52
2017-12-15T07:19:03.934Z,1.52
2017-12-15T07:20:13.958Z,1.48
2017-12-15T07:21:23.670Z,1.53
2017-12-15T07:22:33.627Z,1.56
2017-12-15T07:23:43.401Z,1.53
2017-12-15T07:24:53.420Z,1.52
2017-12-15T07:26:03.127Z,1.56
2017-12-15T07:27:13.091Z,1.58
2017-12-15T07:28:22.543Z,1.57
2017-12-15T07:29:32.292Z,1.63
2017-12-15T07:30:42.042Z,1.66
2017-12-15T07:31:51.752Z,1.57
2017-12-15T07:33:01.731Z,1.61
2017-12-15T07:34:11.179Z,1.58
2017-12-15T07:35:20.904Z,1.61
2017-12-15T07:36:30.611Z,1.6
2017-12-15T07:37:40.326Z,1.58
2017-12-15T07:38:49.800Z,1.64
2017-12-15T07:39:59.752Z,1.6
2017-12-15T07:41:09.693Z,1.67
2017-12-15T07:42:18.899Z,1.61
2017-12-15T07:43:28.856Z,1.64
2017-12-15T07:44:38.904Z,1.71
2017-12-15T07:45:48.707Z,1.64
2017-12-15T07:46:58.523Z,1.76
2017-12-15T07:48:08.555Z,1.78
2017-12-15T07:49:18.549Z,1.78
2017-12-15T07:50:28.273Z,1.84
2017-12-15T07:51:37.986Z,1.84
2017-12-15T07:52:47.958Z,1.76
2017-12-15T07:53:57.652Z,1.82
2017-12-15T07:55:07.422Z,1.93
2017-12-15T07:56:16.850Z,1.92
2017-12-15T07:57:26.282Z,1.89
2017-12-15T07:58:35.743Z,2
2017-12-15T07:59:45.435Z,1.93
2017-12-15T08:00:54.896Z,2
2017-12-15T08:02:04.403Z,1.97
2017-12-15T08:03:14.386Z,1.89
2017-12-15T08:04:24.089Z,2.01
2017-12-15T08:05:34.138Z,2.04
2017-12-15T08:06:43.605Z,2.07
2017-12-15T08:07:53.567Z,2.01
2017-12-15T08:09:03.268Z,2.07
2017-12-15T08:10:12.968Z,2.07
2017-12-15T08:11:22.688Z,2.04
2017-12-15T08:12:32.395Z,2.03
2017-12-15T08:13:42.370Z,2.07
2017-12-15T08:14:52.079Z,2.01
2017-12-15T08:16:02.063Z,2.07
2017-12-15T08:17:11.552Z,1.89
2017-12-15T08:18:21.543Z,2.03
2017-12-15T08:19:31.369Z,1.89
2017-12-15T08:20:41.462Z,2.05
2017-12-15T08:21:51.453Z,2.05
2017-12-15T08:23:00.895Z,1.93
2017-12-15T08:24:10.598Z,2
2017-12-15T08:25:20.558Z,2.07
2017-12-15T08:26:30.535Z,1.93
2017-12-15T08:27:39.994Z,2.01
2017-12-15T08:28:49.703Z,2.01
2017-12-15T08:29:59.400Z,2.07
2017-12-15T08:31:08.842Z,2.03
2017-12-15T08:32:18.278Z,2.01
2017-12-15T08:33:28.257Z,2.08
2017-12-15T08:34:38.221Z,2.08
2017-12-15T08:35:47.909Z,2.08
2017-12-15T08:36:57.871Z,2.08
2017-12-15T08:38:07.363Z,1.98
2017-12-15T08:39:16.803Z,2.04
2017-12-15T08:40:26.749Z,2.07
2017-12-15T08:41:36.449Z,2.1
2017-12-15T08:42:46.396Z,2.18
2017-12-15T08:43:56.086Z,2.14
2017-12-15T08:45:06.141Z,2.14
2017-12-15T08:46:15.583Z,2.18
2017-12-15T08:47:25.011Z,2.26
2017-12-15T08:48:34.695Z,2.32
2017-12-15T08:49:44.640Z,2.28
2017-12-15T08:50:54.069Z,2.3
2017-12-15T08:52:04.034Z,2.26
2017-12-15T08:53:13.750Z,2.32
2017-12-15T08:54:23.189Z,2.32
2017-12-15T08:55:33.171Z,2.26
2017-12-15T08:56:42.849Z,2.32
2017-12-15T08:57:52.289Z,2.34
2017-12-15T08:59:01.716Z,2.26
2017-12-15T09:00:11.660Z,2.26
2017-12-15T09:01:21.360Z,2.32
2017-12-15T09:02:31.301Z,2.32
2017-12-15T09:03:41.266Z,2.36
2017-12-15T09:04:50.734Z,2.36
2017-12-15T09:06:00.166Z,2.36
2017-12-15T09:07:10.127Z,2.33
2017-12-15T09:08:19.845Z,2.32
2017-12-15T09:09:30.041Z,2.26
2017-12-15T09:10:40.053Z,2.32
2017-12-15T09:11:49.756Z,2.32
2017-12-15T09:12:59.740Z,2.23
2017-12-15T09:14:09.746Z,2.33
2017-12-15T09:15:19.200Z,2.34
2017-12-15T09:16:28.893Z,2.34
2017-12-15T09:17:38.585Z,2.44
2017-12-15T09:18:48.553Z,2.43
2017-12-15T09:19:57.994Z,2.4
2017-12-15T09:21:07.439Z,2.37
2017-12-15T09:22:17.409Z,2.47
2017-12-15T09:23:27.142Z,2.5
2017-12-15T09:24:36.831Z,2.47
2017-12-15T09:25:46.842Z,2.5
2017-12-15T09:26:56.271Z,2.46
2017-12-15T09:28:06.231Z,2.52
2017-12-15T09:29:15.987Z,2.51
2017-12-15T09:30:25.187Z,2.55
2017-12-15T09:31:34.889Z,2.54
2017-12-15T09:32:44.878Z,2.44
2017-12-15T09:33:54.838Z,2.5
2017-12-15T09:35:04.796Z,2.57
2017-12-15T09:36:13.960Z,2.57
2017-12-15T09:37:23.878Z,2.62
2017-12-15T09:38:33.862Z,2.62
2017-12-15T09:39:43.061Z,2.61
2017-12-15T09:40:53.007Z,2.7
2017-12-15T09:42:03.222Z,2.72
2017-12-15T09:43:12.938Z,2.65
2017-12-15T09:44:22.890Z,2.72
2017-12-15T09:45:32.861Z,2.62
2017-12-15T09:46:42.829Z,2.58
2017-12-15T09:47:52.557Z,2.58
2017-12-15T09:49:02.529Z,2.52
2017-12-15T09:50:12.217Z,2.58
2017-12-15T09:51:22.239Z,2.51
2017-12-15T09:52:32.229Z,2.47
2017-12-15T09:53:41.924Z,2.51
2017-12-15T09:54:51.613Z,2.51
2017-12-15T09:56:01.309Z,2.4
2017-12-15T09:57:10.740Z,2.47
2017-12-15T09:58:20.187Z,2.4
2017-12-15T09:59:30.142Z,2.39
2017-12-15T10:00:39.846Z,2.43
2017-12-15T10:01:49.376Z,2.39
2017-12-15T10:02:59.345Z,2.46
2017-12-15T10:04:09.090Z,2.37
2017-12-15T10:05:18.793Z,2.43
2017-12-15T10:06:28.962Z,2.33
2017-12-15T10:07:38.702Z,2.33
2017-12-15T10:08:48.648Z,2.25
2017-12-15T10:09:58.356Z,2.28
2017-12-15T10:11:08.116Z,2.3
2017-12-15T10:12:18.080Z,2.3
2017-12-15T10:13:28.044Z,2.32
2017-12-15T10:14:37.742Z,2.3
2017-12-15T10:15:47.182Z,2.39
2017-12-15T10:16:57.154Z,2.3
2017-12-15T10:18:07.121Z,2.41
2017-12-15T10:19:17.105Z,2.33
2017-12-15T10:20:26.808Z,2.28
2017-12-15T10:21:36.496Z,2.28
2017-12-15T10:22:45.961Z,2.34
2017-12-15T10:23:56.279Z,2.44
2017-12-15T10:25:06.779Z,2.39
2017-12-15T10:26:16.639Z,2.39
2017-12-15T10:27:26.409Z,2.4
2017-12-15T10:28:36.160Z,2.43
2017-12-15T10:29:46.319Z,2.4
2017-12-15T10:30:56.150Z,2.37
2017-12-15T10:32:06.132Z,2.39
2017-12-15T10:33:16.079Z,2.37
2017-12-15T10:34:25.793Z,2.4
2017-12-15T10:35:35.507Z,2.46
2017-12-15T10:36:44.984Z,2.41
2017-12-15T10:37:54.704Z,2.39
2017-12-15T10:39:04.712Z,2.4
2017-12-15T10:40:14.675Z,2.39
2017-12-15T10:41:24.619Z,2.44
2017-12-15T10:42:34.566Z,2.47
2017-12-15T10:43:44.271Z,2.44
2017-12-15T10:44:53.967Z,2.5
2017-12-15T10:46:03.947Z,2.46
2017-12-15T10:47:13.911Z,2.54
2017-12-15T10:48:23.631Z,2.47
2017-12-15T10:49:33.330Z,2.46
2017-12-15T10:50:43.320Z,2.59
2017-12-15T10:51:53.310Z,2.62
2017-12-15T10:53:03.291Z,2.61
2017-12-15T10:54:13.289Z,2.61
2017-12-15T10:55:23.069Z,2.5
2017-12-15T10:56:33.042Z,2.52
2017-12-15T10:57:43.002Z,2.54
2017-12-15T10:58:52.979Z,2.5
2017-12-15T11:00:02.932Z,2.51
2017-12-15T11:01:12.897Z,2.47
2017-12-15T11:02:22.607Z,2.43
2017-12-15T11:03:32.790Z,2.47
2017-12-15T11:04:42.477Z,2.41
2017-12-15T11:05:51.655Z,2.46
2017-12-15T11:07:01.616Z,2.4
2017-12-15T11:08:11.322Z,2.39
2017-12-15T11:09:21.024Z,2.44
2017-12-15T11:10:30.730Z,2.51
2017-12-15T11:11:40.441Z,2.46
2017-12-15T11:12:50.154Z,2.47
2017-12-15T11:14:00.212Z,2.5
2017-12-15T11:15:10.159Z,2.5
2017-12-15T11:16:19.869Z,2.46
2017-12-15T11:17:29.810Z,2.58
2017-12-15T11:18:39.501Z,2.59
2017-12-15T11:19:49.188Z,2.58
2017-12-15T11:20:58.375Z,2.7
2017-12-15T11:22:08.371Z,2.58
2017-12-15T11:23:17.809Z,2.64
2017-12-15T11:24:27.772Z,2.57
2017-12-15T11:25:37.466Z,2.61
2017-12-15T11:26:47.425Z,2.68
2017-12-15T11:27:56.613Z,2.68
2017-12-15T11:29:06.062Z,2.72
2017-12-15T11:30:15.491Z,2.69
2017-12-15T11:31:25.496Z,2.72
2017-12-15T11:32:34.956Z,2.72
2017-12-15T11:33:44.929Z,2.7
2017-12-15T11:34:54.642Z,2.8
2017-12-15T11:36:04.603Z,2.76
2017-12-15T11:37:14.564Z,2.76
2017-12-15T11:38:24.263Z,2.76
2017-12-15T11:39:33.949Z,2.75
2017-12-15T11:40:43.639Z,2.75
2017-12-15T11:41:53.349Z,2.79
2017-12-15T11:43:03.315Z,2.79
2017-12-15T11:44:13.269Z,2.72
2017-12-15T11:45:22.958Z,2.8
2017-12-15T11:46:32.684Z,2.77
2017-12-15T11:47:42.640Z,2.75
2017-12-15T11:48:52.715Z,2.73
2017-12-15T11:50:02.748Z,2.75
2017-12-15T11:51:12.193Z,2.69
2017-12-15T11:52:21.830Z,2.72
2017-12-15T11:53:31.616Z,2.73
2017-12-15T11:54:41.356Z,2.79
2017-12-15T11:55:51.306Z,2.79
2017-12-15T11:57:01.017Z,2.76
2017-12-15T11:58:10.731Z,2.76
2017-12-15T11:59:20.430Z,2.73
2017-12-15T12:00:30.479Z,2.72
2017-12-15T12:01:40.487Z,2.64
2017-12-15T12:02:50.442Z,2.68
2017-12-15T12:04:00.393Z,2.68
2017-12-15T12:05:09.845Z,2.76
2017-12-15T12:06:19.552Z,2.69
2017-12-15T12:07:29.316Z,2.69
2017-12-15T12:08:39.283Z,2.65
2017-12-15T12:09:49.233Z,2.62
2017-12-15T12:10:59.232Z,2.62
2017-12-15T12:12:09.294Z,2.7
2017-12-15T12:13:18.990Z,2.59
2017-12-15T12:14:28.690Z,2.61
2017-12-15T12:15:38.369Z,2.58
2017-12-15T12:16:47.811Z,2.51
2017-12-15T12:17:57.501Z,2.52
2017-12-15T12:19:07.202Z,2.52
2017-12-15T12:20:17.153Z,2.41
2017-12-15T12:21:27.113Z,2.5
2017-12-15T12:22:37.052Z,2.43
2017-12-15T12:23:47.008Z,2.46
2017-12-15T12:24:57.047Z,2.41
2017-12-15T12:26:07.024Z,2.37
2017-12-15T12:27:17.076Z,2.28
2017-12-15T12:28:27.018Z,2.26
2017-12-15T12:29:36.969Z,2.33
2017-12-15T12:30:46.397Z,2.28
2017-12-15T12:31:55.567Z,2.26
2017-12-15T12:33:04.767Z,2.12
2017-12-15T12:34:14.719Z,2.12
2017-12-15T12:35:24.435Z,2.04
2017-12-15T12:36:34.120Z,2.04
2017-12-15T12:37:44.070Z,2.05
2017-12-15T12:38:53.516Z,2.08
2017-12-15T12:40:03.542Z,2.08
2017-12-15T12:41:13.502Z,1.93
2017-12-15T12:42:23.484Z,1.93
2017-12-15T12:43:33.475Z,1.97
2017-12-15T12:44:43.190Z,1.92
2017-12-15T12:45:52.909Z,1.89
2017-12-15T12:47:02.579Z,1.86
2017-12-15T12:48:12.525Z,1.82
2017-12-15T12:49:22.471Z,1.89
2017-12-15T12:50:32.425Z,1.79
2017-12-15T12:51:42.376Z,1.92
2017-12-15T12:52:52.392Z,1.78
2017-12-15T12:54:02.364Z,1.78
2017-12-15T12:55:12.321Z,1.79
2017-12-15T12:56:21.760Z,1.79
2017-12-15T12:57:31.447Z,1.85
2017-12-15T12:58:41.166Z,1.71
2017-12-15T12:59:50.369Z,1.75
2017-12-15T13:01:00.068Z,1.81
2017-12-15T13:02:10.019Z,1.75
2017-12-15T13:03:20.015Z,1.71
2017-12-15T13:04:29.452Z,1.81
2017-12-15T13:05:39.410Z,1.74
2017-12-15T13:06:48.620Z,1.78
2017-12-15T13:07:58.317Z,1.76
2017-12-15T13:09:08.268Z,1.68
2017-12-15T13:10:18.251Z,1.74
2017-12-15T13:11:27.970Z,1.71
2017-12-15T13:12:37.663Z,1.76
2017-12-15T13:13:47.356Z,1.81
2017-12-15T13:14:57.082Z,1.81
2017-12-15T13:16:07.062Z,1.76
2017-12-15T13:17:17.043Z,1.84
2017-12-15T13:18:26.766Z,1.81
2017-12-15T13:19:36.709Z,1.78
2017-12-15T13:20:46.438Z,1.86
2017-12-15T13:21:56.157Z,1.89
2017-12-15T13:23:06.131Z,1.89
2017-12-15T13:24:16.084Z,1.86
2017-12-15T13:25:26.029Z,1.88
2017-12-15T13:26:35.730Z,1.79
2017-12-15T13:27:45.428Z,1.84
2017-12-15T13:28:55.392Z,1.89
2017-12-15T13:30:05.369Z,1.89
2017-12-15T13:31:15.074Z,1.89
2017-12-15T13:32:25.064Z,1.81
2017-12-15T13:33:34.733Z,1.88
2017-12-15T13:34:44.700Z,1.88
2017-12-15T13:35:54.654Z,1.95
2017-12-15T13:37:04.359Z,2
2017-12-15T13:38:14.082Z,2
2017-12-15T13:39:24.063Z,2
2017-12-15T13:40:33.749Z,2.04
2017-12-15T13:41:43.708Z,1.89
2017-12-15T13:42:53.419Z,2.04
2017-12-15T13:44:02.850Z,2.03
2017-12-15T13:45:12.588Z,2.05
2017-12-15T13:46:22.544Z,2.08
2017-12-15T13:47:32.255Z,2.01
2017-12-15T13:48:41.988Z,2.04
2017-12-15T13:49:51.673Z,2.07
2017-12-15T13:51:01.372Z,2.04
2017-12-15T13:52:11.073Z,1.98
2017-12-15T13:53:20.791Z,2.08
2017-12-15T13:54:30.517Z,2.04
2017-12-15T13:55:40.468Z,2.07
2017-12-15T13:56:50.145Z,2.19
2017-12-15T13:58:00.093Z,2.15
2017-12-15T13:59:10.054Z,2.01
2017-12-15T14:00:19.990Z,2.14
2017-12-15T14:01:29.951Z,2.16
2017-12-15T14:02:39.908Z,2.14
2017-12-15T14:03:49.870Z,2.1
2017-12-15T14:04:59.809Z,2.21
2017-12-15T14:06:09.814Z,2.25
2017-12-15T14:07:19.554Z,2.33
2017-12-15T14:08:29.505Z,2.26
2017-12-15T14:09:39.470Z,2.3
2017-12-15T14:10:48.897Z,2.26
2017-12-15T14:11:58.586Z,2.32
2017-12-15T14:13:08.562Z,2.34
2017-12-15T14:14:18.529Z,2.32
2017-12-15T14:15:28.507Z,2.3
2017-12-15T14:16:38.238Z,2.28
2017-12-15T14:17:48.182Z,2.3
2017-12-15T14:18:57.877Z,2.37
2017-12-15T14:20:07.570Z,2.43
2017-12-15T14:21:17.527Z,2.4
2017-12-15T14:22:27.471Z,2.43
2017-12-15T14:23:37.415Z,2.4
2017-12-15T14:24:47.365Z,2.39
2017-12-15T14:25:57.369Z,2.51
2017-12-15T14:27:07.080Z,2.4
2017-12-15T14:28:16.757Z,2.41
2017-12-15T14:29:26.435Z,2.5
2017-12-15T14:30:36.127Z,2.5
2017-12-15T14:31:45.812Z,2.52
2017-12-15T14:32:55.505Z,2.44
2017-12-15T14:34:04.944Z,2.51
2017-12-15T14:35:14.671Z,2.54
2017-12-15T14:36:24.623Z,2.46
2017-12-15T14:37:34.574Z,2.43
2017-12-15T14:38:44.523Z,2.43
2017-12-15T14:39:54.473Z,2.46
2017-12-15T14:41:04.431Z,2.62
2017-12-15T14:42:14.371Z,2.59
2017-12-15T14:43:24.321Z,2.61
2017-12-15T14:44:34.263Z,2.69
2017-12-15T14:45:44.216Z,2.57
2017-12-15T14:46:53.893Z,2.58
2017-12-15T14:48:03.584Z,2.62
2017-12-15T14:49:13.044Z,2.65
2017-12-15T14:50:22.729Z,2.69
2017-12-15T14:51:32.693Z,2.7
2017-12-15T14:52:42.643Z,2.72
2017-12-15T14:53:52.622Z,2.73
2017-12-15T14:55:02.330Z,2.75
2017-12-15T14:56:12.030Z,2.77
2017-12-15T14:57:21.468Z,2.76
2017-12-15T14:58:31.170Z,2.79
2017-12-15T14:59:41.142Z,2.8
2017-12-15T15:00:51.091Z,2.76
2017-12-15T15:02:00.768Z,2.75
2017-12-15T15:03:10.489Z,2.85
2017-12-15T15:04:20.171Z,2.79
2017-12-15T15:05:29.859Z,2.8
2017-12-15T15:06:39.551Z,2.83
2017-12-15T15:07:49.251Z,2.79
2017-12-15T15:08:59.222Z,2.76
2017-12-15T15:10:09.187Z,2.72
2017-12-15T15:11:19.150Z,2.72
2017-12-15T15:12:29.100Z,2.79
2017-12-15T15:13:38.786Z,2.79
2017-12-15T15:14:48.731Z,2.82
2017-12-15T15:15:58.161Z,2.83
2017-12-15T15:17:07.850Z,2.85
2017-12-15T15:18:17.806Z,2.83
2017-12-15T15:19:27.501Z,2.85
2017-12-15T15:20:37.213Z,2.85
2017-12-15T15:21:46.755Z,2.79
2017-12-15T15:22:56.470Z,2.82
2017-12-15T15:24:06.169Z,2.83
2017-12-15T15:25:15.622Z,2.87
2017-12-15T15:26:25.593Z,2.91
2017-12-15T15:27:35.622Z,2.93
2017-12-15T15:28:45.321Z,2.83
2017-12-15T15:29:55.283Z,2.9
2017-12-15T15:31:05.237Z,2.87
2017-12-15T15:32:15.200Z,2.93
2017-12-15T15:33:24.923Z,2.87